Brazoria County Airport
KLBX : now visible

Airfield :











YOU CAN JOIN US ON...

 
LOGIN :

Register | Disclaimer

   EN    FR    IT 

 









Legend :    VFR   Marginal VFR   IFR   Intensive IFR   Very Intensive IFR
Visi :
Ceiling :
>= 8 km
>= 3000ft
5 to 8 km
1000 to 3000 ft
1500m to 5 km
500 to 1000 ft
800 to 1500m
200 to 500 ft
< 800m
< 200 ft
Symbols :   Thunderstorms  Fog  Heavy snow  Heavy precipitations  Wind > 20 kt






- Airport Elevation : 25 ft


KLBX - Brazoria County

CURRENT METAR :
  • 031453Z AUTO VRB04KT 10SM FEW023 FEW028 29/24 A3002 RMK AO2 SLP166 T02940239 51007

EXPIRED METARs :
  • 031449Z AUTO 23004KT 10SM FEW023 SCT028 29/24 A3002 RMK AO2
  • 031425Z AUTO 00000KT 9SM SCT023 BKN028 29/24 A3002 RMK AO2 T02890244
  • 031353Z AUTO 00000KT 9SM CLR 28/25 A3001 RMK AO2 SLP163 T02780250
  • 031253Z AUTO 00000KT 7SM FEW021 SCT029 26/24 A3000 RMK AO2 SLP159 T02560244

TAF KLBX
Valid from the 03 at 13:00 until the 04 at 12:00 UTC


031258Z 0313/0412 00000KT P6SM FEW021 SCT029
FM031400 25006KT P6SM FEW250
FM031900 21009KT P6SM SKC
FM040300 VRB04KT P6SM SKC
KZHU FIR / North America



MET'MAP, your aeronautical weather chart ! - Copyright ORBIFLY December 2007 - Disclaimer

ORBIFLY MET'MAP TEAM :

Programming & Development : Alexandra Zaïnal
Concept & original design : Baudouin d'Aumeries
Assistance for programming : Marc-Olivier Méhu
Technical & hardware support : Manuel Goepfert

Contact : metmap@orbifly.com




SOURCES & CREDITS :

   NOAA       Earth
Advisory